Aeroporto :
LOGIN :

Iscrizione | Disclaimer

   EN    FR    IT 

 










Sommario :    VFR   VFR Marginale   IFR   IFR Intensivo   IFR Molto Intensivo
Visibilità : 
Base nubi : 
>= 8 km
>= 3000ft
5 / 8 km
1000 / 3000 ft
1500m / 5 km
500 / 1000 ft
800 / 1500m
200 / 500 ft
< 800m
< 200 ft
Simboli :   Temporali  Nebbia  Neve Forte  Precipitazioni Forti  Vento > 20 kt
SIGMETs :   Varie  Temporali  Ghiacco  Turbolenza  Onda orograficha  Ceneri Vulcaniche






- Altitudine del aeroporto : 245 ft
- Codice IATA : BIQ


LFBZ - Biarritz

ULTIMO METAR :
  • 290600Z AUTO 19002KT 9999 NCD 14/13 Q1020 NOSIG

METARs OBSOLETI :
  • 290530Z AUTO 20003KT 9999 NCD 13/13 Q1020 TEMPO 4000 BR BKN006
  • 290500Z AUTO 19003KT 9999 NCD 13/13 Q1020 TEMPO 4000 BR BKN006
  • 290430Z AUTO 19003KT 9999 NCD 12/12 Q1020 TEMPO 4000 BR BKN006
  • 290400Z AUTO 19003KT 9999 NCD 13/12 Q1020 TEMPO 4000 BR BKN006
  • 290330Z AUTO 22003KT 9999 NCD 13/12 Q1020 TEMPO 4000 BR BKN006
  • 290300Z AUTO 20003KT 9999 NCD 13/12 Q1020 TEMPO 4000 BR BKN006
  • 290230Z AUTO 22002KT 9999 NCD 13/13 Q1020 TEMPO 4000 BR BKN006
  • 290200Z AUTO VRB02KT 9999 NCD 13/13 Q1020 TEMPO 4000 BR BKN006
  • 290130Z AUTO 19003KT 9999 NCD 13/12 Q1020 TEMPO 4000 BR BKN006

TAF TAF LFBZ
Valido dal 29 a 06 ore il 30 a 06 ore UTC


290500Z 2906/3006 VRB02KT CAVOK
BECMG 2909/2911 30010KT
BECMG 2916/2918 BKN010
TEMPO 2918/3006 3000 RA BKN005



MetMap, La meteo Aeronautica in un colpo d'occhio ! - Copyright ORBIFLY Dicembre 2007 - Disclaimer

ORBIFLY MET'MAP TEAM :

Programmazione e sviluppo : Alexandra Zaïnal
Concezione : Baudouin d'Aumeries
Supporto tecnico e logistico : Manuel Goepfert
Aiuto : Marc-Olivier Méhu
Aiuto per la traduzione : Arnaldo La Scala




FONTI E CREDITI :

   NOAA